createdAt,value
2023-05-03T00:00:21.384Z,4.90
2023-05-03T00:02:54.325Z,4.63
2023-05-03T00:05:25.236Z,4.68
2023-05-03T00:07:57.296Z,4.63
2023-05-03T00:10:28.497Z,4.85
2023-05-03T00:12:59.492Z,5.13
2023-05-03T00:15:33.157Z,5.28
2023-05-03T00:18:04.858Z,4.50
2023-05-03T00:20:36.361Z,4.80
2023-05-03T00:23:07.500Z,4.68
2023-05-03T00:25:38.624Z,4.93
2023-05-03T00:28:09.523Z,4.68
2023-05-03T00:30:43.042Z,4.95
2023-05-03T00:33:14.029Z,5.30
2023-05-03T00:35:44.960Z,5.03
2023-05-03T00:38:17.284Z,5.32
2023-05-03T00:40:48.232Z,5.80
2023-05-03T00:43:19.131Z,5.90
2023-05-03T00:45:55.278Z,5.88
2023-05-03T00:48:30.918Z,6.10
2023-05-03T00:51:03.463Z,5.50
2023-05-03T00:53:34.577Z,5.93
2023-05-03T00:56:07.278Z,6.30
2023-05-03T00:58:40.791Z,5.47
2023-05-03T01:01:15.629Z,5.55
2023-05-03T01:03:47.108Z,5.72
2023-05-03T01:06:28.827Z,5.50
2023-05-03T01:09:05.979Z,6.18
2023-05-03T01:11:51.094Z,5.72
2023-05-03T01:14:31.707Z,5.45
2023-05-03T01:17:12.028Z,5.35
2023-05-03T01:19:48.059Z,6.13
2023-05-03T01:22:26.154Z,5.25
2023-05-03T01:25:09.540Z,6.00
2023-05-03T01:27:40.975Z,5.80
2023-05-03T01:30:14.871Z,5.93
2023-05-03T01:32:53.815Z,6.22
2023-05-03T01:35:33.568Z,5.60
2023-05-03T01:38:04.981Z,5.93
2023-05-03T01:40:43.931Z,6.20
2023-05-03T01:43:16.754Z,5.55
2023-05-03T01:45:48.286Z,6.47
2023-05-03T01:48:21.172Z,6.10
2023-05-03T01:50:52.018Z,5.75
2023-05-03T01:53:23.158Z,5.55
2023-05-03T01:55:56.794Z,6.25
2023-05-03T01:58:27.806Z,5.50
2023-05-03T02:00:58.603Z,6.45
2023-05-03T02:03:29.465Z,6.32
2023-05-03T02:06:00.243Z,5.95
2023-05-03T02:08:33.028Z,6.03
2023-05-03T02:11:06.982Z,6.28
2023-05-03T02:13:40.977Z,5.90
2023-05-03T02:16:12.142Z,5.68
2023-05-03T02:18:43.698Z,5.90
2023-05-03T02:21:14.832Z,5.90
2023-05-03T02:23:45.725Z,5.85
2023-05-03T02:26:19.361Z,5.38
2023-05-03T02:28:50.419Z,5.80
2023-05-03T02:31:21.430Z,6.00
2023-05-03T02:33:52.435Z,6.03
2023-05-03T02:36:23.825Z,6.55
2023-05-03T02:38:55.011Z,5.65
2023-05-03T02:41:29.072Z,5.00
2023-05-03T02:44:01.299Z,5.47
2023-05-03T02:46:32.225Z,5.95
2023-05-03T02:49:03.171Z,4.68
2023-05-03T02:51:34.070Z,6.38
2023-05-03T02:54:05.213Z,6.03
2023-05-03T02:56:39.072Z,6.57
2023-05-03T02:59:10.102Z,6.28
2023-05-03T03:01:41.008Z,6.55
2023-05-03T03:04:12.997Z,6.30
2023-05-03T03:06:44.017Z,7.00
2023-05-03T03:09:15.688Z,5.22
2023-05-03T03:11:49.489Z,6.63
2023-05-03T03:14:20.484Z,6.63
2023-05-03T03:16:54.364Z,6.55
2023-05-03T03:19:25.189Z,6.20
2023-05-03T03:21:56.032Z,7.22
2023-05-03T03:24:27.638Z,7.57
2023-05-03T03:27:01.177Z,7.22
2023-05-03T03:29:35.110Z,7.32
2023-05-03T03:32:06.168Z,7.15
2023-05-03T03:34:37.658Z,6.57
2023-05-03T03:37:09.636Z,7.70
2023-05-03T03:39:43.711Z,7.85
2023-05-03T03:42:20.386Z,7.35
2023-05-03T03:44:51.785Z,6.70
2023-05-03T03:47:22.822Z,7.68
2023-05-03T03:49:54.041Z,7.78
2023-05-03T03:52:25.071Z,7.57
2023-05-03T03:54:56.747Z,7.50
2023-05-03T03:57:31.862Z,8.57
2023-05-03T04:00:06.062Z,7.68
2023-05-03T04:02:43.432Z,7.93
2023-05-03T04:05:20.442Z,8.57
2023-05-03T04:07:52.274Z,8.32
2023-05-03T04:10:24.460Z,7.68
2023-05-03T04:12:57.920Z,8.38
2023-05-03T04:15:28.901Z,9.52
2023-05-03T04:18:02.534Z,8.68
2023-05-03T04:20:36.322Z,9.25
2023-05-03T04:23:08.967Z,8.95
2023-05-03T04:25:46.871Z,9.10
2023-05-03T04:28:22.411Z,9.10
2023-05-03T04:30:55.236Z,8.48
2023-05-03T04:33:30.462Z,9.43
2023-05-03T04:36:06.543Z,9.45
2023-05-03T04:38:39.369Z,9.82
2023-05-03T04:41:12.830Z,9.82
2023-05-03T04:43:48.566Z,9.45
2023-05-03T04:46:20.743Z,9.60
2023-05-03T04:48:52.312Z,9.15
2023-05-03T04:51:23.974Z,9.52
2023-05-03T04:53:56.822Z,11.07
2023-05-03T04:56:28.498Z,9.52
2023-05-03T04:59:13.802Z,10.00
2023-05-03T05:01:44.966Z,9.77
2023-05-03T05:04:16.071Z,9.63
2023-05-03T05:06:53.868Z,10.20
2023-05-03T05:09:31.472Z,10.35
2023-05-03T05:12:04.957Z,9.52
2023-05-03T05:14:44.583Z,9.45
2023-05-03T05:17:15.686Z,9.85
2023-05-03T05:19:46.705Z,8.32
2023-05-03T05:22:17.946Z,11.02
2023-05-03T05:24:55.375Z,10.57
2023-05-03T05:27:27.591Z,10.00
2023-05-03T05:30:03.080Z,9.45
2023-05-03T05:32:36.116Z,10.48
2023-05-03T05:35:08.425Z,9.77
2023-05-03T05:37:39.448Z,9.45
2023-05-03T05:40:13.360Z,9.32
2023-05-03T05:42:50.517Z,9.98
2023-05-03T05:45:26.088Z,9.38
2023-05-03T05:47:58.583Z,9.48
2023-05-03T05:50:30.373Z,9.65
2023-05-03T05:53:09.427Z,9.68
2023-05-03T05:55:44.702Z,9.63
2023-05-03T05:58:17.050Z,9.93
2023-05-03T06:00:56.229Z,10.85
2023-05-03T06:03:27.440Z,9.10
2023-05-03T06:05:58.793Z,9.68
2023-05-03T06:08:29.836Z,9.70
2023-05-03T06:11:00.955Z,9.40
2023-05-03T06:13:38.786Z,9.95
2023-05-03T06:16:15.182Z,8.98
2023-05-03T06:18:46.271Z,10.32
2023-05-03T06:21:17.268Z,9.82
2023-05-03T06:23:48.355Z,8.63
2023-05-03T06:26:19.443Z,9.07
2023-05-03T06:28:52.523Z,8.70
2023-05-03T06:31:27.753Z,9.02
2023-05-03T06:33:59.203Z,8.88
2023-05-03T06:36:31.413Z,8.80
2023-05-03T06:39:04.896Z,8.55
2023-05-03T06:41:36.344Z,9.02
2023-05-03T06:44:07.727Z,9.35
2023-05-03T06:46:41.496Z,8.43
2023-05-03T06:49:12.863Z,8.07
2023-05-03T06:51:44.856Z,7.72
2023-05-03T06:54:15.785Z,8.13
2023-05-03T06:56:46.626Z,7.50
2023-05-03T06:59:17.556Z,7.68
2023-05-03T07:01:51.505Z,7.75
2023-05-03T07:04:22.616Z,7.13
2023-05-03T07:06:56.695Z,7.10
2023-05-03T07:09:42.120Z,7.70
2023-05-03T07:12:13.686Z,7.50
2023-05-03T07:14:45.192Z,7.82
2023-05-03T07:17:18.827Z,6.15
2023-05-03T07:19:49.759Z,6.72
2023-05-03T07:22:25.036Z,6.50
2023-05-03T07:24:59.261Z,6.15
2023-05-03T07:27:30.550Z,6.93
2023-05-03T07:30:01.972Z,6.18
2023-05-03T07:32:36.107Z,6.63
2023-05-03T07:35:07.744Z,6.25
2023-05-03T07:37:39.030Z,6.20
2023-05-03T07:40:19.602Z,5.95
2023-05-03T07:42:50.540Z,5.55
2023-05-03T07:45:22.256Z,5.15
2023-05-03T07:47:55.900Z,5.63
2023-05-03T07:50:26.780Z,5.28
2023-05-03T07:52:57.832Z,5.32
2023-05-03T07:55:30.433Z,5.90
2023-05-03T07:58:01.492Z,5.10
2023-05-03T08:00:32.597Z,4.95
2023-05-03T08:03:07.034Z,4.72
2023-05-03T08:05:38.689Z,4.88
2023-05-03T08:08:10.487Z,4.78
2023-05-03T08:10:41.497Z,5.00
2023-05-03T08:13:12.518Z,4.05
2023-05-03T08:15:43.395Z,4.28
2023-05-03T08:18:19.931Z,4.72
2023-05-03T08:20:52.396Z,5.05
2023-05-03T08:23:23.678Z,4.60
2023-05-03T08:25:55.116Z,4.78
2023-05-03T08:28:27.104Z,4.40
2023-05-03T08:30:58.123Z,4.32
2023-05-03T08:33:34.159Z,4.22
2023-05-03T08:36:05.060Z,3.47
2023-05-03T08:38:37.252Z,4.78
2023-05-03T08:41:20.362Z,4.00
2023-05-03T08:43:57.701Z,3.85
2023-05-03T08:46:29.407Z,3.80
2023-05-03T08:49:07.075Z,3.58
2023-05-03T08:51:38.345Z,3.28
2023-05-03T08:54:09.467Z,3.45
2023-05-03T08:56:44.248Z,3.47
2023-05-03T08:59:17.534Z,4.07
2023-05-03T09:01:49.002Z,3.10
2023-05-03T09:04:22.658Z,3.30
2023-05-03T09:07:11.493Z,3.80
2023-05-03T09:09:45.598Z,3.85
2023-05-03T09:29:31.399Z,3.40
2023-05-03T09:32:05.984Z,3.78
2023-05-03T09:34:37.776Z,3.25
2023-05-03T09:37:09.281Z,3.70
2023-05-03T09:39:40.373Z,3.50
2023-05-03T09:42:15.740Z,3.55
2023-05-03T09:44:54.353Z,3.60
2023-05-03T09:47:25.909Z,3.20
2023-05-03T09:49:57.307Z,3.15
2023-05-03T09:52:31.926Z,4.10
2023-05-03T09:55:03.106Z,2.97
2023-05-03T09:57:35.304Z,3.42
2023-05-03T10:00:12.308Z,3.85
2023-05-03T10:02:43.937Z,3.40
2023-05-03T10:05:16.618Z,2.78
2023-05-03T10:07:49.698Z,3.35
2023-05-03T10:10:21.482Z,3.15
2023-05-03T10:12:54.243Z,2.97
2023-05-03T10:15:29.916Z,3.53
2023-05-03T10:18:06.904Z,3.00
2023-05-03T10:20:43.357Z,3.47
2023-05-03T10:23:15.369Z,2.88
2023-05-03T10:26:16.561Z,2.80
2023-05-03T10:28:47.980Z,3.13
2023-05-03T10:31:48.942Z,2.90
2023-05-03T10:34:33.888Z,2.47
2023-05-03T10:37:05.684Z,2.63
2023-05-03T10:39:36.962Z,2.70
2023-05-03T10:42:11.360Z,2.90
2023-05-03T10:44:43.911Z,2.60
2023-05-03T10:47:17.441Z,2.83
2023-05-03T10:49:52.584Z,2.50
2023-05-03T10:52:53.447Z,2.30
2023-05-03T10:55:26.203Z,2.17
2023-05-03T10:57:59.252Z,2.72
2023-05-03T11:00:45.896Z,3.22
2023-05-03T11:03:37.730Z,2.40
2023-05-03T11:06:11.809Z,2.45
2023-05-03T11:08:42.927Z,2.35
2023-05-03T11:11:14.905Z,2.38
2023-05-03T11:13:48.443Z,2.83
2023-05-03T11:16:21.330Z,2.95
2023-05-03T11:18:55.005Z,2.70
2023-05-03T11:21:29.458Z,2.40
2023-05-03T11:24:02.385Z,2.38
2023-05-03T11:26:39.432Z,2.60
2023-05-03T11:29:14.993Z,2.75
2023-05-03T11:31:46.257Z,2.53
2023-05-03T11:34:17.905Z,2.50
2023-05-03T11:36:52.005Z,3.05
2023-05-03T11:39:22.908Z,2.60
2023-05-03T11:42:07.471Z,2.88
2023-05-03T11:44:39.010Z,2.90
2023-05-03T11:47:10.321Z,2.53
2023-05-03T11:49:42.287Z,2.63
2023-05-03T11:52:15.935Z,2.63
2023-05-03T11:54:48.874Z,2.70
2023-05-03T11:57:21.583Z,2.50
2023-05-03T11:59:55.161Z,2.50
2023-05-03T12:02:27.827Z,2.25
2023-05-03T12:05:01.098Z,2.67
2023-05-03T12:07:37.727Z,2.38
2023-05-03T12:10:24.035Z,2.75
2023-05-03T12:13:00.478Z,2.60
2023-05-03T12:15:34.041Z,3.13
2023-05-03T12:18:09.163Z,2.30
2023-05-03T12:21:29.068Z,2.22
2023-05-03T12:23:35.649Z,2.50
2023-05-03T12:26:09.627Z,2.65
2023-05-03T12:28:41.163Z,2.65
2023-05-03T12:31:13.182Z,3.10
2023-05-03T12:33:51.700Z,2.95
2023-05-03T12:36:37.441Z,2.55
2023-05-03T12:39:15.954Z,2.70
2023-05-03T12:44:23.721Z,2.95
2023-05-03T12:46:55.063Z,2.80
2023-05-03T12:49:26.392Z,2.53
2023-05-03T12:52:34.657Z,2.22
2023-05-03T12:54:56.276Z,2.22
2023-05-03T12:57:30.530Z,3.13
2023-05-03T13:00:03.045Z,2.08
2023-05-03T13:05:23.346Z,1.85
2023-05-03T13:10:42.573Z,2.08
2023-05-03T13:13:20.861Z,1.98
2023-05-03T13:15:54.250Z,1.90
2023-05-03T13:18:25.759Z,2.40
2023-05-03T13:20:56.759Z,2.22
2023-05-03T13:23:27.775Z,2.10
2023-05-03T13:26:01.686Z,1.92
2023-05-03T13:28:32.621Z,1.98
2023-05-03T13:31:03.811Z,2.45
2023-05-03T13:33:38.259Z,2.33
2023-05-03T13:36:09.911Z,2.15
2023-05-03T13:38:42.262Z,2.10
2023-05-03T13:41:16.768Z,1.80
2023-05-03T13:43:48.404Z,2.13
2023-05-03T13:46:19.380Z,1.88
2023-05-03T13:48:50.385Z,3.05
2023-05-03T13:51:21.527Z,1.95
2023-05-03T13:53:52.636Z,1.75
2023-05-03T13:56:26.322Z,1.48
2023-05-03T13:58:58.321Z,1.63
2023-05-03T14:01:30.429Z,2.00
2023-05-03T14:04:01.947Z,1.60
2023-05-03T14:06:33.763Z,1.63
2023-05-03T14:09:05.339Z,1.40
2023-05-03T14:11:39.112Z,1.60
2023-05-03T14:14:10.049Z,1.60
2023-05-03T14:16:42.391Z,1.77
2023-05-03T14:19:18.543Z,1.63
2023-05-03T14:21:51.924Z,2.08
2023-05-03T14:24:23.617Z,1.60
2023-05-03T14:26:58.465Z,1.95
2023-05-03T14:29:31.107Z,1.63
2023-05-03T14:32:04.025Z,1.65
2023-05-03T14:34:36.255Z,1.85
2023-05-03T14:37:08.275Z,1.67
2023-05-03T14:39:39.930Z,1.67
2023-05-03T14:42:14.333Z,1.50
2023-05-03T14:44:46.178Z,1.60
2023-05-03T14:47:17.297Z,2.38
2023-05-03T14:49:48.286Z,1.90
2023-05-03T14:52:19.430Z,1.70
2023-05-03T14:54:50.383Z,1.70
2023-05-03T14:57:24.021Z,2.10
2023-05-03T14:59:55.098Z,1.73
2023-05-03T15:02:27.352Z,2.00
2023-05-03T15:04:58.560Z,1.67
2023-05-03T15:07:29.961Z,1.50
2023-05-03T15:10:04.093Z,1.50
2023-05-03T15:12:42.573Z,2.08
2023-05-03T15:15:14.222Z,1.83
2023-05-03T15:17:45.417Z,2.08
2023-05-03T15:20:17.845Z,2.00
2023-05-03T15:22:49.340Z,1.80
2023-05-03T15:25:20.466Z,2.28
2023-05-03T15:27:56.079Z,2.10
2023-05-03T15:30:27.422Z,1.80
2023-05-03T15:32:59.109Z,2.70
2023-05-03T15:35:31.557Z,1.98
2023-05-03T15:38:04.821Z,2.22
2023-05-03T15:40:41.051Z,1.98
2023-05-03T15:43:27.525Z,1.90
2023-05-03T15:46:11.769Z,2.10
2023-05-03T15:48:42.867Z,2.20
2023-05-03T15:51:14.637Z,2.00
2023-05-03T15:53:45.623Z,2.22
2023-05-03T15:56:17.525Z,2.00
2023-05-03T15:58:51.712Z,1.92
2023-05-03T16:01:23.667Z,1.98
2023-05-03T16:03:54.696Z,2.25
2023-05-03T16:06:25.630Z,1.98
2023-05-03T16:08:56.937Z,1.88
2023-05-03T16:11:28.498Z,1.85
2023-05-03T16:14:02.126Z,2.28
2023-05-03T16:16:32.980Z,1.92
2023-05-03T16:19:06.889Z,1.90
2023-05-03T16:21:37.921Z,1.80
2023-05-03T16:24:11.130Z,2.40
2023-05-03T16:26:42.198Z,2.42
2023-05-03T16:29:16.297Z,2.15
2023-05-03T16:31:49.761Z,2.13
2023-05-03T16:34:20.974Z,2.65
2023-05-03T16:36:52.118Z,2.70
2023-05-03T16:39:23.092Z,2.47
2023-05-03T16:41:53.976Z,2.85
2023-05-03T16:44:27.800Z,2.38
2023-05-03T16:46:58.722Z,2.55
2023-05-03T16:49:29.963Z,2.72
2023-05-03T16:52:01.279Z,2.70
2023-05-03T16:54:32.722Z,2.80
2023-05-03T16:57:04.198Z,2.42
2023-05-03T16:59:37.734Z,3.05
2023-05-03T17:02:08.681Z,2.42
2023-05-03T17:04:40.206Z,2.67
2023-05-03T17:07:11.252Z,2.55
2023-05-03T17:09:42.314Z,2.45
2023-05-03T17:12:13.346Z,2.50
2023-05-03T17:14:47.061Z,2.40
2023-05-03T17:17:17.978Z,2.33
2023-05-03T17:19:48.921Z,2.70
2023-05-03T17:22:19.895Z,2.72
2023-05-03T17:24:51.210Z,2.47
2023-05-03T17:27:22.232Z,2.75
2023-05-03T17:29:57.623Z,2.95
2023-05-03T17:32:29.072Z,3.40
2023-05-03T17:35:00.580Z,2.90
2023-05-03T17:37:32.826Z,3.38
2023-05-03T17:40:05.490Z,3.17
2023-05-03T17:42:36.566Z,3.50
2023-05-03T17:45:12.035Z,3.40
2023-05-03T17:47:43.134Z,3.50
2023-05-03T17:50:16.576Z,3.42
2023-05-03T17:52:50.145Z,3.45
2023-05-03T17:55:22.448Z,3.50
2023-05-03T17:57:53.431Z,3.75
2023-05-03T18:00:28.397Z,3.28
2023-05-03T18:02:59.702Z,3.22
2023-05-03T18:05:37.062Z,3.58
2023-05-03T18:08:08.505Z,3.28
2023-05-03T18:10:41.520Z,3.75
2023-05-03T18:13:14.311Z,3.97
2023-05-03T18:15:48.084Z,4.00
2023-05-03T18:18:19.101Z,3.17
2023-05-03T18:20:50.102Z,3.25
2023-05-03T18:23:21.079Z,3.33
2023-05-03T18:25:52.983Z,3.35
2023-05-03T18:28:28.380Z,3.78
2023-05-03T18:31:02.203Z,4.40
2023-05-03T18:33:36.074Z,3.55
2023-05-03T18:36:09.259Z,3.17
2023-05-03T18:38:40.137Z,3.33
2023-05-03T18:41:15.469Z,3.17
2023-05-03T18:43:46.953Z,3.03
2023-05-03T18:46:23.545Z,2.92
2023-05-03T18:48:54.467Z,3.22
2023-05-03T18:51:25.881Z,3.10
2023-05-03T18:53:57.105Z,2.55
2023-05-03T18:56:30.434Z,2.55
2023-05-03T18:59:01.450Z,2.75
2023-05-03T19:01:35.251Z,2.97
2023-05-03T19:04:06.563Z,2.83
2023-05-03T19:06:37.483Z,2.90
2023-05-03T19:09:10.680Z,2.80
2023-05-03T19:11:44.156Z,2.53
2023-05-03T19:14:15.070Z,3.03
2023-05-03T19:16:48.852Z,3.40
2023-05-03T19:19:20.439Z,3.10
2023-05-03T19:21:51.325Z,3.25
2023-05-03T19:24:22.227Z,3.33
2023-05-03T19:26:53.203Z,3.20
2023-05-03T19:29:24.114Z,3.90
2023-05-03T19:31:59.363Z,4.07
2023-05-03T19:34:30.386Z,4.55
2023-05-03T19:37:01.515Z,4.78
2023-05-03T19:39:35.891Z,4.63
2023-05-03T19:42:07.188Z,3.72
2023-05-03T19:44:38.896Z,3.70
2023-05-03T19:47:12.549Z,3.40
2023-05-03T19:49:43.536Z,3.47
2023-05-03T19:52:14.461Z,3.50
2023-05-03T19:54:45.407Z,3.05
2023-05-03T19:57:16.198Z,3.50
2023-05-03T19:59:47.097Z,3.53
2023-05-03T20:02:24.206Z,3.33
2023-05-03T20:04:55.929Z,4.22
2023-05-03T20:07:26.934Z,3.78
2023-05-03T20:09:57.918Z,3.75
2023-05-03T20:12:28.868Z,3.90
2023-05-03T20:14:59.802Z,3.63
2023-05-03T20:17:33.636Z,3.45
2023-05-03T20:20:11.105Z,4.00
2023-05-03T20:22:42.060Z,3.65
2023-05-03T20:25:13.353Z,3.67
2023-05-03T20:27:44.243Z,3.83
2023-05-03T20:30:15.701Z,3.58
2023-05-03T20:32:49.536Z,3.97
2023-05-03T20:35:21.156Z,4.00
2023-05-03T20:37:52.154Z,4.07
2023-05-03T20:40:23.206Z,4.20
2023-05-03T20:42:54.430Z,4.05
2023-05-03T20:45:25.402Z,4.13
2023-05-03T20:47:59.059Z,4.30
2023-05-03T20:50:30.350Z,4.28
2023-05-03T20:53:01.436Z,4.45
2023-05-03T20:55:32.765Z,4.43
2023-05-03T20:58:04.181Z,4.68
2023-05-03T21:00:35.159Z,4.90
2023-05-03T21:03:08.743Z,4.47
2023-05-03T21:05:39.765Z,4.63
2023-05-03T21:08:10.725Z,4.55
2023-05-03T21:10:41.757Z,4.32
2023-05-03T21:13:12.730Z,4.57
2023-05-03T21:15:43.940Z,4.40
2023-05-03T21:18:17.467Z,4.30
2023-05-03T21:20:48.289Z,4.10
2023-05-03T21:23:19.127Z,3.85
2023-05-03T21:25:49.916Z,4.68
2023-05-03T21:28:20.814Z,3.88
2023-05-03T21:30:51.645Z,3.90
2023-05-03T21:33:25.412Z,4.25
2023-05-03T21:35:56.416Z,4.35
2023-05-03T21:38:27.300Z,4.30
2023-05-03T21:41:06.542Z,3.88
2023-05-03T21:43:39.157Z,4.45
2023-05-03T21:46:11.865Z,4.45
2023-05-03T21:48:46.413Z,3.80
2023-05-03T21:51:21.968Z,3.80
2023-05-03T21:53:52.961Z,4.28
2023-05-03T21:56:23.888Z,4.22
2023-05-03T21:58:54.747Z,4.00
2023-05-03T22:01:25.829Z,3.58
2023-05-03T22:03:59.426Z,4.13
2023-05-03T22:06:31.475Z,4.05
2023-05-03T22:09:02.404Z,3.95
2023-05-03T22:11:33.567Z,4.30
2023-05-03T22:14:08.449Z,4.15
2023-05-03T22:16:42.264Z,4.10
2023-05-03T22:19:16.391Z,3.78
2023-05-03T22:21:47.384Z,3.75
2023-05-03T22:24:18.787Z,3.83
2023-05-03T22:26:50.101Z,4.13
2023-05-03T22:29:22.853Z,3.67
2023-05-03T22:31:54.984Z,4.15
2023-05-03T22:34:29.768Z,4.22
2023-05-03T22:37:02.770Z,4.22
2023-05-03T22:39:34.775Z,4.32
2023-05-03T22:42:07.107Z,4.30
2023-05-03T22:44:40.548Z,4.00
2023-05-03T22:47:11.645Z,4.18
2023-05-03T22:49:45.410Z,3.95
2023-05-03T22:52:16.372Z,4.10
2023-05-03T22:54:47.255Z,3.80
2023-05-03T22:57:18.529Z,3.95
2023-05-03T22:59:49.501Z,3.88
2023-05-03T23:02:20.951Z,4.10
2023-05-03T23:04:55.245Z,3.88
2023-05-03T23:07:27.055Z,4.25
2023-05-03T23:10:05.360Z,4.30
2023-05-03T23:12:36.696Z,4.00
2023-05-03T23:15:08.644Z,3.90
2023-05-03T23:17:39.466Z,3.45
2023-05-03T23:20:15.398Z,3.90
2023-05-03T23:22:46.318Z,4.22
2023-05-03T23:25:17.310Z,3.78
2023-05-03T23:27:48.205Z,3.85
2023-05-03T23:30:19.540Z,3.90
2023-05-03T23:32:50.978Z,3.88
2023-05-03T23:35:24.926Z,4.28
2023-05-03T23:37:55.851Z,3.58
2023-05-03T23:40:27.519Z,3.28
2023-05-03T23:43:01.796Z,3.60
2023-05-03T23:45:32.645Z,3.28
2023-05-03T23:48:03.494Z,3.85
2023-05-03T23:50:37.179Z,3.45
2023-05-03T23:53:08.069Z,3.22
2023-05-03T23:55:38.986Z,3.35
2023-05-03T23:58:09.892Z,3.85
